Aviation Digital Data Service (ADDS)

Output produced by TAFs form (0753 UTC 25 March 2017)
found at http://www.aviationweather.gov/adds/tafs/
 
METAR text: RJSR 250700Z 28010KT 250V310 9999 FEW015 BKN050 05/M03 Q1020
Conditions at: RJSR (ODATE-NOSHIRO , JP) observed 0700 UTC 25 March 2017
Temperature: 5.0°C (41°F)
Dewpoint: -3.0°C (27°F) [RH = 56%]
Pressure (altimeter): 30.12 inches Hg (1020.0 mb)
Winds: from the W (280 degrees) at 12 MPH (10 knots; 5.2 m/s)
Visibility: 6 or more miles (10+ km)
Ceiling: 5000 feet AGL
Clouds: few clouds at 1500 feet AGL
broken clouds at 5000 feet AGL
Weather: no significant weather observed at this time